Time,TemperatureF,DewpointF,PressureIn,WindDirection,WindDirectionDegrees,WindSpeedMPH,WindSpeedGustMPH,Humidity,HourlyPrecipIn,Conditions,Clouds,dailyrainin,SolarRadiationWatts/m^2,SoftwareType,DateUTC
2013-01-14 00:03:00,19.0,14.0,-100.00,NNW,348,10.0,17.0,80,0.00,,,0.00,0.000000,,2013-01-14 06:03:00,
2013-01-14 00:33:00,18.0,12.0,-100.00,NNW,334,7.0,17.0,78,0.00,,,0.00,0.000000,,2013-01-14 06:33:00,
2013-01-14 00:43:00,18.0,12.0,-100.00,NNW,334,7.0,17.0,78,0.00,,,0.00,0.000000,,2013-01-14 06:43:00,
2013-01-14 00:53:00,18.0,12.0,-100.00,NNW,334,7.0,17.0,78,0.00,,,0.00,0.000000,,2013-01-14 06:53:00,
2013-01-14 01:02:00,18.0,12.0,-100.00,NNW,334,7.0,17.0,78,0.00,,,0.00,0.000000,,2013-01-14 07:02:00,
2013-01-14 01:33:00,18.0,11.0,-100.00,NNW,335,12.0,18.0,75,0.00,,,0.00,0.000000,,2013-01-14 07:33:00,
2013-01-14 01:43:00,18.0,11.0,-100.00,NNW,335,12.0,18.0,75,0.00,,,0.00,0.000000,,2013-01-14 07:43:00,
2013-01-14 01:53:00,18.0,11.0,-100.00,NNW,335,12.0,18.0,75,0.00,,,0.00,0.000000,,2013-01-14 07:53:00,
2013-01-14 02:02:00,18.0,11.0,-100.00,NNW,335,12.0,18.0,75,0.00,,,0.00,0.000000,,2013-01-14 08:02:00,
2013-01-14 02:33:00,18.0,10.0,-100.00,North,353,9.0,17.0,69,0.00,,,0.00,0.000000,,2013-01-14 08:33:00,
2013-01-14 02:43:00,18.0,10.0,-100.00,North,353,9.0,17.0,69,0.00,,,0.00,0.000000,,2013-01-14 08:43:00,
2013-01-14 02:53:00,18.0,10.0,-100.00,North,353,9.0,17.0,69,0.00,,,0.00,0.000000,,2013-01-14 08:53:00,
2013-01-14 03:02:00,18.0,10.0,-100.00,North,353,9.0,17.0,69,0.00,,,0.00,0.000000,,2013-01-14 09:02:00,
2013-01-14 03:34:00,17.0,9.0,-100.00,NNW,345,13.0,17.0,69,0.00,,,0.00,0.000000,,2013-01-14 09:34:00,
2013-01-14 03:43:00,17.0,9.0,-100.00,NNW,345,13.0,17.0,69,0.00,,,0.00,0.000000,,2013-01-14 09:43:00,
2013-01-14 03:53:00,17.0,9.0,-100.00,NNW,345,13.0,17.0,69,0.00,,,0.00,0.000000,,2013-01-14 09:53:00,
2013-01-14 04:02:00,17.0,9.0,-100.00,NNW,345,13.0,17.0,69,0.00,,,0.00,0.000000,,2013-01-14 10:02:00,
2013-01-14 04:33:00,17.0,7.0,-100.00,North,7,11.0,20.0,63,0.00,,,0.00,0.000000,,2013-01-14 10:33:00,
2013-01-14 04:43:00,17.0,7.0,-100.00,North,7,11.0,20.0,63,0.00,,,0.00,0.000000,,2013-01-14 10:43:00,
2013-01-14 04:53:00,17.0,7.0,-100.00,North,7,11.0,20.0,63,0.00,,,0.00,0.000000,,2013-01-14 10:53:00,
2013-01-14 05:02:00,17.0,7.0,-100.00,North,7,11.0,20.0,63,0.00,,,0.00,0.000000,,2013-01-14 11:02:00,
2013-01-14 05:33:00,17.0,6.0,-100.00,North,4,14.0,22.0,62,0.00,,,-99.99,0.000000,,2013-01-14 11:33:00,
2013-01-14 05:43:00,17.0,6.0,-100.00,North,4,14.0,22.0,62,0.00,,,-99.99,0.000000,,2013-01-14 11:43:00,
2013-01-14 05:53:00,17.0,6.0,-100.00,North,4,14.0,22.0,62,0.00,,,-99.99,0.000000,,2013-01-14 11:53:00,
2013-01-14 06:03:00,17.0,6.0,-100.00,North,4,14.0,22.0,62,0.00,,,-99.99,0.000000,,2013-01-14 12:03:00,
2013-01-14 06:33:00,17.0,7.0,-100.00,NNW,341,12.0,20.0,63,0.00,,,0.00,0.000000,,2013-01-14 12:33:00,
2013-01-14 06:43:00,17.0,7.0,-100.00,NNW,341,12.0,20.0,63,0.00,,,0.00,0.000000,,2013-01-14 12:43:00,
2013-01-14 06:53:00,17.0,7.0,-100.00,NNW,341,12.0,20.0,63,0.00,,,0.00,0.000000,,2013-01-14 12:53:00,
2013-01-14 07:03:00,17.0,7.0,-100.00,NNW,341,12.0,20.0,63,0.00,,,0.00,0.000000,,2013-01-14 13:03:00,
2013-01-14 07:33:00,17.0,6.0,-100.00,NNE,30,6.0,16.0,62,0.00,,,0.00,0.000000,,2013-01-14 13:33:00,
2013-01-14 07:43:00,17.0,6.0,-100.00,NNE,30,6.0,16.0,62,0.00,,,0.00,0.000000,,2013-01-14 13:43:00,
2013-01-14 07:53:00,17.0,6.0,-100.00,NNE,30,6.0,16.0,62,0.00,,,0.00,0.000000,,2013-01-14 13:53:00,
2013-01-14 08:03:00,17.0,6.0,-100.00,NNE,30,6.0,16.0,62,0.00,,,0.00,0.000000,,2013-01-14 14:03:00,
2013-01-14 08:33:00,18.0,8.0,-100.00,SSW,206,2.0,12.0,63,0.00,,,0.00,7.000000,,2013-01-14 14:33:00,
2013-01-14 08:43:00,18.0,8.0,-100.00,SSW,206,2.0,12.0,63,0.00,,,0.00,7.000000,,2013-01-14 14:43:00,
2013-01-14 08:53:00,18.0,8.0,-100.00,SSW,206,2.0,12.0,63,0.00,,,0.00,7.000000,,2013-01-14 14:53:00,
2013-01-14 09:03:00,18.0,8.0,-100.00,SSW,206,2.0,12.0,63,0.00,,,0.00,7.000000,,2013-01-14 15:03:00,
2013-01-14 09:34:00,18.0,8.0,-100.00,NE,52,9.0,12.0,63,0.00,,,0.00,35.000000,,2013-01-14 15:34:00,
2013-01-14 09:43:00,18.0,8.0,-100.00,NE,52,9.0,12.0,63,0.00,,,0.00,35.000000,,2013-01-14 15:43:00,
2013-01-14 09:53:00,18.0,8.0,-100.00,NE,52,9.0,12.0,63,0.00,,,0.00,35.000000,,2013-01-14 15:53:00,
2013-01-14 10:03:00,18.0,8.0,-100.00,NE,52,9.0,12.0,63,0.00,,,0.00,35.000000,,2013-01-14 16:03:00,
2013-01-14 10:33:00,20.0,9.0,-100.00,NNE,25,8.0,14.0,62,0.00,,,0.00,133.000000,,2013-01-14 16:33:00,
2013-01-14 10:43:00,20.0,9.0,-100.00,NNE,25,8.0,14.0,62,0.00,,,0.00,133.000000,,2013-01-14 16:43:00,
2013-01-14 10:53:00,20.0,9.0,-100.00,NNE,25,8.0,14.0,62,0.00,,,0.00,133.000000,,2013-01-14 16:53:00,
2013-01-14 11:03:00,20.0,9.0,-100.00,NNE,25,8.0,14.0,62,0.00,,,0.00,133.000000,,2013-01-14 17:03:00,
2013-01-14 11:33:00,22.0,10.0,-100.00,North,0,8.0,14.0,60,0.00,,,0.00,188.000000,,2013-01-14 17:33:00,
2013-01-14 11:43:00,22.0,10.0,-100.00,North,0,8.0,14.0,60,0.00,,,0.00,188.000000,,2013-01-14 17:43:00,
2013-01-14 11:54:00,22.0,10.0,-100.00,North,0,8.0,14.0,60,0.00,,,0.00,188.000000,,2013-01-14 17:54:00,
2013-01-14 12:03:00,22.0,10.0,-100.00,North,0,8.0,14.0,60,0.00,,,0.00,188.000000,,2013-01-14 18:03:00,
2013-01-14 12:33:00,27.0,10.0,-100.00,NNW,341,7.0,14.0,49,0.00,,,0.00,655.000000,,2013-01-14 18:33:00,
2013-01-14 12:43:00,27.0,10.0,-100.00,NNW,341,7.0,14.0,49,0.00,,,0.00,655.000000,,2013-01-14 18:43:00,
2013-01-14 12:53:00,27.0,10.0,-100.00,NNW,341,7.0,14.0,49,0.00,,,0.00,655.000000,,2013-01-14 18:53:00,
2013-01-14 13:03:00,27.0,10.0,-100.00,NNW,341,7.0,14.0,49,0.00,,,0.00,655.000000,,2013-01-14 19:03:00,
2013-01-14 13:33:00,31.0,13.0,-100.00,North,7,8.0,13.0,46,0.00,,,0.00,649.000000,,2013-01-14 19:33:00,
2013-01-14 13:43:00,31.0,13.0,-100.00,North,7,8.0,13.0,46,0.00,,,0.00,649.000000,,2013-01-14 19:43:00,
2013-01-14 13:53:00,31.0,13.0,-100.00,North,7,8.0,13.0,46,0.00,,,0.00,649.000000,,2013-01-14 19:53:00,
2013-01-14 14:03:00,31.0,13.0,-100.00,North,7,8.0,13.0,46,0.00,,,0.00,649.000000,,2013-01-14 20:03:00,
2013-01-14 14:33:00,32.0,12.0,-100.00,NE,36,8.0,14.0,42,0.00,,,0.00,641.000000,,2013-01-14 20:33:00,
2013-01-14 14:43:00,32.0,12.0,-100.00,NE,36,8.0,14.0,42,0.00,,,0.00,641.000000,,2013-01-14 20:43:00,
2013-01-14 14:53:00,32.0,12.0,-100.00,NE,36,8.0,14.0,42,0.00,,,0.00,641.000000,,2013-01-14 20:53:00,
2013-01-14 15:03:00,32.0,12.0,-100.00,NE,36,8.0,14.0,42,0.00,,,0.00,641.000000,,2013-01-14 21:03:00,
2013-01-14 15:33:00,32.0,13.0,-100.00,NNE,14,10.0,16.0,45,0.00,,,0.00,536.000000,,2013-01-14 21:33:00,
2013-01-14 15:43:00,32.0,13.0,-100.00,NNE,14,10.0,16.0,45,0.00,,,0.00,536.000000,,2013-01-14 21:43:00,
2013-01-14 15:53:00,32.0,13.0,-100.00,NNE,14,10.0,16.0,45,0.00,,,0.00,536.000000,,2013-01-14 21:53:00,
2013-01-14 16:03:00,32.0,13.0,-100.00,NNE,14,10.0,16.0,45,0.00,,,0.00,536.000000,,2013-01-14 22:03:00,
2013-01-14 16:33:00,32.0,14.0,-100.00,NNE,13,8.0,15.0,46,0.00,,,-99.99,370.000000,,2013-01-14 22:33:00,
2013-01-14 16:43:00,32.0,14.0,-100.00,NNE,13,8.0,15.0,46,0.00,,,-99.99,370.000000,,2013-01-14 22:43:00,
2013-01-14 16:53:00,32.0,14.0,-100.00,NNE,13,8.0,15.0,46,0.00,,,-99.99,370.000000,,2013-01-14 22:53:00,
2013-01-14 17:03:00,32.0,14.0,-100.00,NNE,13,8.0,15.0,46,0.00,,,-99.99,370.000000,,2013-01-14 23:03:00,
2013-01-14 17:33:00,30.0,13.0,-100.00,NNE,14,7.0,13.0,49,0.00,,,0.00,160.000000,,2013-01-14 23:33:00,
2013-01-14 17:43:00,30.0,13.0,-100.00,NNE,14,7.0,13.0,49,0.00,,,0.00,160.000000,,2013-01-14 23:43:00,
2013-01-14 17:53:00,30.0,13.0,-100.00,NNE,14,7.0,13.0,49,0.00,,,0.00,160.000000,,2013-01-14 23:53:00,
2013-01-14 18:03:00,30.0,13.0,-100.00,NNE,14,7.0,13.0,49,0.00,,,0.00,160.000000,,2013-01-15 00:03:00,
2013-01-14 18:33:00,27.0,13.0,-100.00,NNW,347,7.0,13.0,56,0.00,,,0.00,7.000000,,2013-01-15 00:33:00,
2013-01-14 18:43:00,27.0,13.0,-100.00,NNW,347,7.0,13.0,56,0.00,,,0.00,7.000000,,2013-01-15 00:43:00,
2013-01-14 18:53:00,27.0,13.0,-100.00,NNW,347,7.0,13.0,56,0.00,,,0.00,7.000000,,2013-01-15 00:53:00,
2013-01-14 19:02:00,27.0,13.0,-100.00,NNW,347,7.0,13.0,56,0.00,,,0.00,7.000000,,2013-01-15 01:02:00,
2013-01-14 20:33:00,23.0,10.0,-100.00,NNE,12,7.0,10.0,58,-99.99,,,0.00,0.000000,,2013-01-15 02:33:00,
2013-01-14 20:43:00,23.0,10.0,-100.00,NNE,12,7.0,10.0,58,-99.99,,,0.00,0.000000,,2013-01-15 02:43:00,
2013-01-14 20:53:00,23.0,10.0,-100.00,NNE,12,7.0,10.0,58,-99.99,,,0.00,0.000000,,2013-01-15 02:53:00,
2013-01-14 21:02:00,23.0,10.0,-100.00,NNE,12,7.0,10.0,58,-99.99,,,0.00,0.000000,,2013-01-15 03:02:00,
2013-01-14 21:33:00,22.0,10.0,-100.00,North,351,6.0,10.0,58,0.00,,,0.00,0.000000,,2013-01-15 03:33:00,
2013-01-14 21:43:00,22.0,10.0,-100.00,North,351,6.0,10.0,58,0.00,,,0.00,0.000000,,2013-01-15 03:43:00,
2013-01-14 21:53:00,22.0,10.0,-100.00,North,351,6.0,10.0,58,0.00,,,0.00,0.000000,,2013-01-15 03:53:00,
2013-01-14 22:02:00,22.0,10.0,-100.00,North,351,6.0,10.0,58,0.00,,,0.00,0.000000,,2013-01-15 04:02:00,
2013-01-14 22:33:00,21.0,10.0,-100.00,NNW,346,6.0,10.0,62,0.00,,,0.00,0.000000,,2013-01-15 04:33:00,
2013-01-14 22:42:00,21.0,10.0,-100.00,NNW,346,6.0,10.0,62,0.00,,,0.00,0.000000,,2013-01-15 04:42:00,
2013-01-14 22:52:00,21.0,10.0,-100.00,NNW,346,6.0,10.0,62,0.00,,,0.00,0.000000,,2013-01-15 04:52:00,
2013-01-14 23:03:00,21.0,10.0,-100.00,NNW,346,6.0,10.0,62,0.00,,,0.00,0.000000,,2013-01-15 05:03:00,
2013-01-14 23:33:00,20.0,9.0,-100.00,North,350,7.0,13.0,61,0.00,,,0.00,0.000000,,2013-01-15 05:33:00,
2013-01-14 23:42:00,20.0,9.0,-100.00,North,350,7.0,13.0,61,0.00,,,0.00,0.000000,,2013-01-15 05:42:00,
2013-01-14 23:53:00,20.0,9.0,-100.00,North,350,7.0,13.0,61,0.00,,,0.00,0.000000,,2013-01-15 05:53:00,